createdAt,value
2017-12-06T00:00:50.672Z,79.25
2017-12-06T00:01:50.744Z,79.15
2017-12-06T00:02:51.005Z,79.15
2017-12-06T00:03:50.963Z,79.15
2017-12-06T00:04:50.978Z,78.87
2017-12-06T00:05:50.739Z,79.25
2017-12-06T00:06:51.008Z,79.72
2017-12-06T00:07:51.018Z,79.72
2017-12-06T00:08:51.034Z,79.53
2017-12-06T00:09:51.045Z,79.44
2017-12-06T00:10:51.060Z,79.63
2017-12-06T00:11:50.820Z,79.53
2017-12-06T00:12:51.086Z,80.1
2017-12-06T00:13:51.101Z,80.1
2017-12-06T00:14:51.115Z,79.82
2017-12-06T00:15:51.130Z,79.91
2017-12-06T00:16:51.139Z,80
2017-12-06T00:17:51.205Z,79.91
2017-12-06T00:18:51.167Z,79.82
2017-12-06T00:19:51.183Z,79.63
2017-12-06T00:20:51.223Z,79.34
2017-12-06T00:21:50.959Z,79.25
2017-12-06T00:22:51.223Z,78.96
2017-12-06T00:23:50.985Z,79.25
2017-12-06T00:24:51.031Z,79.15
2017-12-06T00:25:51.264Z,78.87
2017-12-06T00:26:51.278Z,78.67
2017-12-06T00:27:51.299Z,79.06
2017-12-06T00:28:51.056Z,79.44
2017-12-06T00:29:51.069Z,80
2017-12-06T00:30:51.332Z,79.82
2017-12-06T00:31:51.345Z,80
2017-12-06T00:32:51.403Z,79.82
2017-12-06T00:33:51.174Z,79.63
2017-12-06T00:34:51.438Z,79.15
2017-12-06T00:35:51.401Z,79.15
2017-12-06T00:36:51.415Z,79.25
2017-12-06T00:37:51.427Z,79.72
2017-12-06T00:38:51.440Z,79.53
2017-12-06T00:39:51.555Z,79.25
2017-12-06T00:40:51.472Z,79.15
2017-12-06T00:41:51.481Z,79.25
2017-12-06T00:42:51.499Z,79.15
2017-12-06T00:43:51.511Z,79.15
2017-12-06T00:44:51.524Z,79.82
2017-12-06T00:45:51.537Z,80.19
2017-12-06T00:46:51.554Z,80.72
2017-12-06T00:47:51.565Z,80.91
2017-12-06T00:48:51.325Z,80.91
2017-12-06T00:49:51.391Z,80.91
2017-12-06T00:50:51.610Z,80.76
2017-12-06T00:51:51.620Z,80.57
2017-12-06T00:52:51.658Z,80.82
2017-12-06T00:53:51.649Z,80.91
2017-12-06T00:54:51.409Z,80.63
2017-12-06T00:55:51.676Z,80.63
2017-12-06T00:56:51.703Z,80.91
2017-12-06T00:57:51.701Z,81.01
2017-12-06T00:58:51.714Z,81.1
2017-12-06T00:59:51.725Z,81.1
2017-12-06T01:00:51.742Z,81.38
2017-12-06T01:01:51.754Z,81.1
2017-12-06T01:02:51.772Z,81.01
2017-12-06T01:03:51.794Z,80.82
2017-12-06T01:04:51.847Z,80.67
2017-12-06T01:05:51.809Z,80.57
2017-12-06T01:06:51.823Z,80.53
2017-12-06T01:07:51.836Z,80.91
2017-12-06T01:08:51.854Z,80.91
2017-12-06T01:09:51.864Z,81.05
2017-12-06T01:10:51.623Z,80.72
2017-12-06T01:11:51.897Z,80.67
2017-12-06T01:12:51.901Z,80.91
2017-12-06T01:13:51.937Z,81.38
2017-12-06T01:14:51.678Z,81.01
2017-12-06T01:15:51.690Z,80.63
2017-12-06T01:16:51.960Z,80.48
2017-12-06T01:17:51.717Z,80.53
2017-12-06T01:18:51.982Z,80.53
2017-12-06T01:19:52.046Z,80.57
2017-12-06T01:20:52.015Z,80.25
2017-12-06T01:21:52.023Z,80.53
2017-12-06T01:22:51.783Z,80.57
2017-12-06T01:23:52.049Z,80.48
2017-12-06T01:24:51.811Z,80.38
2017-12-06T01:25:51.822Z,80.29
2017-12-06T01:26:52.090Z,80.67
2017-12-06T01:27:52.107Z,80.38
2017-12-06T01:28:52.117Z,80.1
2017-12-06T01:29:52.129Z,80.29
2017-12-06T01:30:52.142Z,80.48
2017-12-06T01:31:52.155Z,80.34
2017-12-06T01:32:52.186Z,80.67
2017-12-06T01:33:52.183Z,80.57
2017-12-06T01:34:52.246Z,80.53
2017-12-06T01:35:52.209Z,80.38
2017-12-06T01:36:51.970Z,80.57
2017-12-06T01:37:51.983Z,80.44
2017-12-06T01:38:52.250Z,81.1
2017-12-06T01:39:52.137Z,81.01
2017-12-06T01:40:52.271Z,80.91
2017-12-06T01:41:52.035Z,80.53
2017-12-06T01:42:52.300Z,80.48
2017-12-06T01:43:52.060Z,80.34
2017-12-06T01:44:52.332Z,80.25
2017-12-06T01:45:52.340Z,80.53
2017-12-06T01:46:52.101Z,81.1
2017-12-06T01:47:52.365Z,81.1
2017-12-06T01:48:52.383Z,81.67
2017-12-06T01:49:52.399Z,81.67
2017-12-06T01:50:52.574Z,81.86
2017-12-06T01:51:52.170Z,80.91
2017-12-06T01:52:52.436Z,80.67
2017-12-06T01:53:52.452Z,80.57
2017-12-06T01:54:52.467Z,80.48
2017-12-06T01:55:52.223Z,80.19
2017-12-06T01:56:52.498Z,80.38
2017-12-06T01:57:52.251Z,80.82
2017-12-06T01:58:52.514Z,80.72
2017-12-06T01:59:52.528Z,80.72
2017-12-06T02:00:52.542Z,80.34
2017-12-06T02:01:52.306Z,80.38
2017-12-06T02:02:52.569Z,80.38
2017-12-06T02:03:52.602Z,80.34
2017-12-06T02:04:52.600Z,80.29
2017-12-06T02:05:52.663Z,79.91
2017-12-06T02:06:52.628Z,80.29
2017-12-06T02:07:52.835Z,80
2017-12-06T02:08:52.399Z,79.63
2017-12-06T02:09:52.660Z,80.1
2017-12-06T02:10:52.423Z,80.34
2017-12-06T02:11:52.693Z,80.48
2017-12-06T02:12:52.707Z,80.44
2017-12-06T02:13:52.464Z,80.67
2017-12-06T02:14:52.728Z,80.44
2017-12-06T02:15:52.540Z,80.63
2017-12-06T02:16:52.759Z,80.72
2017-12-06T02:17:52.771Z,80.53
2017-12-06T02:18:52.780Z,80.72
2017-12-06T02:19:52.542Z,80.63
2017-12-06T02:20:52.606Z,81.1
2017-12-06T02:21:52.820Z,80.91
2017-12-06T02:22:52.837Z,81.2
2017-12-06T02:23:52.602Z,80.91
2017-12-06T02:24:52.860Z,80.82
2017-12-06T02:25:52.622Z,81.01
2017-12-06T02:26:52.888Z,81.01
2017-12-06T02:27:52.647Z,80.44
2017-12-06T02:28:52.914Z,81.01
2017-12-06T02:29:52.675Z,80.91
2017-12-06T02:30:52.944Z,80.82
2017-12-06T02:31:52.707Z,80.91
2017-12-06T02:32:52.974Z,80.91
2017-12-06T02:33:52.983Z,80.63
2017-12-06T02:34:52.995Z,80.53
2017-12-06T02:35:53.069Z,80.91
2017-12-06T02:36:53.033Z,81.86
2017-12-06T02:37:53.034Z,81.67
2017-12-06T02:38:52.793Z,81.76
2017-12-06T02:39:53.063Z,81.86
2017-12-06T02:40:52.824Z,81.01
2017-12-06T02:41:53.089Z,80.82
2017-12-06T02:42:53.107Z,80.67
2017-12-06T02:43:53.113Z,80.76
2017-12-06T02:44:53.131Z,80.29
2017-12-06T02:45:53.143Z,80.63
2017-12-06T02:46:53.152Z,81.01
2017-12-06T02:47:53.164Z,81.1
2017-12-06T02:48:53.179Z,81.29
2017-12-06T02:49:53.192Z,81.2
2017-12-06T02:50:53.255Z,80.91
2017-12-06T02:51:53.224Z,80.91
2017-12-06T02:52:53.233Z,80.53
2017-12-06T02:53:53.244Z,80.72
2017-12-06T02:54:53.258Z,81.38
2017-12-06T02:55:53.272Z,81.1
2017-12-06T02:56:53.032Z,80.91
2017-12-06T02:57:53.046Z,81.48
2017-12-06T02:58:53.312Z,81.95
2017-12-06T02:59:53.324Z,81.29
2017-12-06T03:00:53.337Z,81.57
2017-12-06T03:01:53.098Z,81.2
2017-12-06T03:02:53.368Z,81.57
2017-12-06T03:03:53.378Z,81.67
2017-12-06T03:04:53.137Z,81.48
2017-12-06T03:05:53.454Z,81.1
2017-12-06T03:06:53.428Z,81.86
2017-12-06T03:07:53.428Z,81.95
2017-12-06T03:08:53.462Z,81.38
2017-12-06T03:09:53.203Z,81.38
2017-12-06T03:10:53.467Z,81.05
2017-12-06T03:11:53.230Z,80.82
2017-12-06T03:12:53.496Z,80.91
2017-12-06T03:13:53.508Z,81.67
2017-12-06T03:14:53.270Z,81.76
2017-12-06T03:15:53.536Z,81.86
2017-12-06T03:16:53.545Z,81.67
2017-12-06T03:17:53.310Z,81.48
2017-12-06T03:18:53.574Z,80.53
2017-12-06T03:19:53.588Z,80.63
2017-12-06T03:20:53.661Z,80.53
2017-12-06T03:21:53.364Z,80.82
2017-12-06T03:22:53.627Z,81.01
2017-12-06T03:23:53.387Z,80.91
2017-12-06T03:24:53.655Z,81.48
2017-12-06T03:25:53.416Z,81.38
2017-12-06T03:26:53.427Z,81.48
2017-12-06T03:27:53.711Z,81.76
2017-12-06T03:28:53.716Z,81.38
2017-12-06T03:29:53.719Z,81.57
2017-12-06T03:30:53.741Z,82.33
2017-12-06T03:31:53.494Z,81.38
2017-12-06T03:32:53.506Z,81.76
2017-12-06T03:33:53.771Z,81.76
2017-12-06T03:34:53.538Z,81.67
2017-12-06T03:35:53.848Z,81.67
2017-12-06T03:36:53.810Z,81.67
2017-12-06T03:37:53.830Z,81.95
2017-12-06T03:38:53.838Z,81.76
2017-12-06T03:39:53.851Z,81.38
2017-12-06T03:40:53.863Z,82.33
2017-12-06T03:41:53.624Z,82.24
2017-12-06T03:42:53.889Z,82.33
2017-12-06T03:43:53.907Z,82.43
2017-12-06T03:44:53.912Z,82.71
2017-12-06T03:45:53.928Z,82.9
2017-12-06T03:46:53.940Z,83
2017-12-06T03:47:53.701Z,82.81
2017-12-06T03:48:53.970Z,82.71
2017-12-06T03:49:53.984Z,83
2017-12-06T03:50:54.044Z,82.62
2017-12-06T03:51:54.014Z,82.43
2017-12-06T03:52:54.019Z,82.62
2017-12-06T03:53:54.037Z,81.95
2017-12-06T03:54:54.046Z,82.14
2017-12-06T03:55:53.804Z,82.33
2017-12-06T03:56:53.817Z,82.9
2017-12-06T03:57:54.086Z,83
2017-12-06T03:58:54.097Z,83.33
2017-12-06T03:59:54.107Z,83.71
2017-12-06T04:00:54.128Z,83.52
2017-12-06T04:01:54.139Z,83.9
2017-12-06T04:02:53.896Z,84.47
2017-12-06T04:03:54.165Z,84.38
2017-12-06T04:04:54.171Z,83.71
2017-12-06T04:05:53.983Z,84.56
2017-12-06T04:06:54.198Z,84.47
2017-12-06T04:07:54.212Z,84.56
2017-12-06T04:08:53.971Z,84.75
2017-12-06T04:09:54.241Z,85.23
2017-12-06T04:10:54.261Z,84.85
2017-12-06T04:11:54.263Z,85.23
2017-12-06T04:12:54.273Z,85.04
2017-12-06T04:13:54.036Z,84.75
2017-12-06T04:14:54.298Z,84.47
2017-12-06T04:15:54.308Z,84.47
2017-12-06T04:16:54.322Z,84.66
2017-12-06T04:17:54.344Z,84.56
2017-12-06T04:18:54.355Z,84.56
2017-12-06T04:19:54.365Z,84.28
2017-12-06T04:20:54.431Z,84.56
2017-12-06T04:21:54.450Z,84.56
2017-12-06T04:22:54.396Z,84.85
2017-12-06T04:23:54.410Z,85.04
2017-12-06T04:24:54.425Z,84.94
2017-12-06T04:25:54.194Z,84.75
2017-12-06T04:26:54.449Z,84.94
2017-12-06T04:27:54.207Z,84.94
2017-12-06T04:28:54.472Z,84.75
2017-12-06T04:29:54.488Z,84.56
2017-12-06T04:30:54.245Z,84.56
2017-12-06T04:31:54.510Z,84.75
2017-12-06T04:32:54.521Z,84.66
2017-12-06T04:33:54.538Z,84.47
2017-12-06T04:34:54.562Z,84.75
2017-12-06T04:35:54.559Z,84.75
2017-12-06T04:36:54.574Z,84.66
2017-12-06T04:37:54.584Z,84.38
2017-12-06T04:38:54.597Z,84.19
2017-12-06T04:39:54.607Z,84.75
2017-12-06T04:40:54.619Z,85.23
2017-12-06T04:41:54.633Z,85.51
2017-12-06T04:42:54.647Z,84.66
2017-12-06T04:43:54.657Z,84.75
2017-12-06T04:44:54.670Z,84.66
2017-12-06T04:45:54.684Z,84.75
2017-12-06T04:46:54.696Z,84.85
2017-12-06T04:47:54.708Z,84.75
2017-12-06T04:48:54.722Z,84.56
2017-12-06T04:49:54.734Z,84.38
2017-12-06T04:50:54.493Z,84.38
2017-12-06T04:51:54.758Z,84.28
2017-12-06T04:52:54.772Z,84.19
2017-12-06T04:53:54.533Z,84.28
2017-12-06T04:54:54.796Z,84.56
2017-12-06T04:55:54.811Z,84.09
2017-12-06T04:56:54.572Z,84.66
2017-12-06T04:57:54.838Z,84.56
2017-12-06T04:58:54.847Z,84.19
2017-12-06T04:59:54.861Z,84.66
2017-12-06T05:00:54.880Z,84.19
2017-12-06T05:01:54.885Z,83.62
2017-12-06T05:02:54.900Z,84
2017-12-06T05:03:54.915Z,83.43
2017-12-06T05:04:54.923Z,82.95
2017-12-06T05:05:54.937Z,83.14
2017-12-06T05:06:54.992Z,83.71
2017-12-06T05:07:54.709Z,83.18
2017-12-06T05:08:54.974Z,83.05
2017-12-06T05:09:54.988Z,83.24
2017-12-06T05:10:54.999Z,83.14
2017-12-06T05:11:55.021Z,82.86
2017-12-06T05:12:54.773Z,83.05
2017-12-06T05:13:55.043Z,83.18
2017-12-06T05:14:55.052Z,83.14
2017-12-06T05:15:55.063Z,83.24
2017-12-06T05:16:54.825Z,83.33
2017-12-06T05:17:55.090Z,83.33
2017-12-06T05:18:55.103Z,82.86
2017-12-06T05:19:54.864Z,83.05
2017-12-06T05:20:55.130Z,83.05
2017-12-06T05:21:55.145Z,83.14
2017-12-06T05:22:55.209Z,83.14
2017-12-06T05:23:55.169Z,83.52
2017-12-06T05:24:55.181Z,83.43
2017-12-06T05:25:55.193Z,83.71
2017-12-06T05:26:55.205Z,84
2017-12-06T05:27:55.219Z,83.05
2017-12-06T05:28:54.977Z,83.14
2017-12-06T05:29:54.993Z,83.43
2017-12-06T05:30:55.002Z,83.24
2017-12-06T05:31:55.269Z,83.05
2017-12-06T05:32:55.281Z,83.43
2017-12-06T05:33:55.044Z,83.52
2017-12-06T05:34:55.311Z,83.05
2017-12-06T05:35:55.318Z,83.05
2017-12-06T05:36:55.333Z,83.14
2017-12-06T05:37:55.161Z,83.28
2017-12-06T05:38:55.357Z,83.43
2017-12-06T05:39:55.373Z,82.57
2017-12-06T05:40:55.384Z,82.95
2017-12-06T05:41:55.143Z,82.39
2017-12-06T05:42:55.157Z,82.62
2017-12-06T05:43:55.431Z,82.52
2017-12-06T05:44:55.182Z,82.33
2017-12-06T05:45:55.194Z,82.14
2017-12-06T05:46:55.462Z,82.05
2017-12-06T05:47:55.222Z,82.52
2017-12-06T05:48:55.238Z,82.9
2017-12-06T05:49:55.246Z,82.9
2017-12-06T05:50:55.513Z,83.33
2017-12-06T05:51:55.526Z,83.14
2017-12-06T05:52:55.590Z,83.33
2017-12-06T05:53:55.553Z,83.43
2017-12-06T05:54:55.313Z,82.86
2017-12-06T05:55:55.583Z,83.71
2017-12-06T05:56:55.339Z,83.05
2017-12-06T05:57:55.604Z,82.71
2017-12-06T05:58:55.371Z,82.76
2017-12-06T05:59:55.630Z,82.57
2017-12-06T06:00:55.665Z,82.76
2017-12-06T06:01:55.710Z,82.52
2017-12-06T06:02:55.676Z,82.33
2017-12-06T06:03:55.681Z,82.62
2017-12-06T06:04:55.696Z,82.76
2017-12-06T06:05:55.710Z,82.71
2017-12-06T06:06:55.725Z,82.14
2017-12-06T06:07:55.784Z,81.95
2017-12-06T06:08:55.496Z,81.76
2017-12-06T06:09:55.760Z,81.2
2017-12-06T06:10:55.771Z,82.33
2017-12-06T06:11:55.785Z,82.05
2017-12-06T06:12:55.802Z,82.33
2017-12-06T06:13:55.814Z,81.48
2017-12-06T06:14:55.824Z,81.38
2017-12-06T06:15:55.838Z,82.33
2017-12-06T06:16:55.855Z,82.24
2017-12-06T06:17:55.864Z,82.14
2017-12-06T06:18:55.876Z,82.33
2017-12-06T06:19:55.891Z,81.38
2017-12-06T06:20:56.105Z,81.86
2017-12-06T06:21:55.914Z,81.57
2017-12-06T06:22:55.984Z,81.76
2017-12-06T06:23:55.941Z,81.76
2017-12-06T06:24:55.956Z,81.76
2017-12-06T06:25:55.968Z,81.86
2017-12-06T06:26:55.731Z,81.86
2017-12-06T06:27:55.995Z,81.57
2017-12-06T06:28:55.759Z,81.67
2017-12-06T06:29:56.021Z,81.67
2017-12-06T06:30:56.033Z,81.95
2017-12-06T06:31:56.047Z,81.67
2017-12-06T06:32:56.085Z,81.76
2017-12-06T06:33:55.823Z,81.76
2017-12-06T06:34:56.095Z,81.95
2017-12-06T06:35:56.100Z,81.38
2017-12-06T06:36:56.111Z,81.67
2017-12-06T06:37:55.930Z,81.57
2017-12-06T06:38:55.885Z,81.76
2017-12-06T06:39:55.898Z,82.05
2017-12-06T06:40:56.162Z,81.67
2017-12-06T06:41:56.177Z,81.76
2017-12-06T06:42:55.938Z,81.76
2017-12-06T06:43:56.218Z,81.86
2017-12-06T06:44:55.963Z,81.57
2017-12-06T06:45:56.229Z,81.57
2017-12-06T06:46:56.243Z,81.67
2017-12-06T06:47:56.254Z,81.44
2017-12-06T06:48:56.268Z,82.29
2017-12-06T06:49:56.296Z,82.1
2017-12-06T06:50:56.042Z,81.57
2017-12-06T06:51:56.054Z,81.34
2017-12-06T06:52:56.371Z,81.72
2017-12-06T06:53:56.333Z,81.86
2017-12-06T06:54:56.348Z,81.86
2017-12-06T06:55:56.362Z,81.86
2017-12-06T06:56:56.377Z,81.53
2017-12-06T06:57:56.233Z,81.57
2017-12-06T06:58:56.400Z,81.53
2017-12-06T06:59:56.411Z,81.86
2017-12-06T07:00:56.172Z,81.38
2017-12-06T07:01:56.442Z,82.1
2017-12-06T07:02:56.215Z,81.57
2017-12-06T07:03:56.464Z,81.57
2017-12-06T07:04:56.479Z,81.48
2017-12-06T07:05:56.494Z,81.67
2017-12-06T07:06:56.250Z,81.76
2017-12-06T07:07:56.565Z,81.57
2017-12-06T07:08:56.530Z,81.86
2017-12-06T07:09:56.551Z,81.48
2017-12-06T07:10:56.556Z,81.57
2017-12-06T07:11:56.571Z,81.2
2017-12-06T07:12:56.582Z,82.39
2017-12-06T07:13:56.596Z,81.63
2017-12-06T07:14:56.608Z,81.57
2017-12-06T07:15:56.369Z,81.29
2017-12-06T07:16:56.379Z,81.48
2017-12-06T07:17:56.396Z,81.76
2017-12-06T07:18:56.657Z,80.91
2017-12-06T07:19:56.669Z,80.63
2017-12-06T07:20:56.679Z,80.63
2017-12-06T07:21:56.696Z,81.2
2017-12-06T07:22:56.507Z,80.91
2017-12-06T07:23:56.719Z,81.1
2017-12-06T07:24:56.734Z,81.67
2017-12-06T07:25:56.495Z,81.2
2017-12-06T07:26:56.770Z,81.57
2017-12-06T07:27:56.874Z,81.38
2017-12-06T07:28:56.788Z,81.67
2017-12-06T07:29:56.806Z,81.76
2017-12-06T07:30:56.816Z,81.86
2017-12-06T07:31:56.829Z,81.67
2017-12-06T07:32:56.591Z,81.86
2017-12-06T07:33:56.855Z,81.67
2017-12-06T07:34:56.865Z,81.1
2017-12-06T07:35:56.878Z,80.72
2017-12-06T07:36:56.900Z,80.72
2017-12-06T07:37:56.955Z,81.2
2017-12-06T07:38:56.926Z,81.1
2017-12-06T07:39:56.679Z,81.01
2017-12-06T07:40:56.946Z,81.76
2017-12-06T07:41:56.958Z,81.67
2017-12-06T07:42:56.970Z,81.76
2017-12-06T07:43:56.983Z,81.67
2017-12-06T07:44:56.996Z,81.86
2017-12-06T07:45:57.019Z,81.57
2017-12-06T07:46:57.024Z,81.01
2017-12-06T07:47:57.040Z,81.1
2017-12-06T07:48:57.053Z,81.1
2017-12-06T07:49:57.063Z,80.82
2017-12-06T07:50:57.075Z,80.82
2017-12-06T07:51:57.090Z,80.44
2017-12-06T07:52:57.153Z,80.44
2017-12-06T07:53:57.117Z,80.44
2017-12-06T07:54:57.127Z,80.34
2017-12-06T07:55:57.149Z,79.58
2017-12-06T07:56:57.156Z,79.77
2017-12-06T07:57:57.169Z,79.77
2017-12-06T07:58:57.182Z,79.87
2017-12-06T07:59:57.199Z,80.06
2017-12-06T08:00:56.963Z,79.58
2017-12-06T08:01:56.970Z,79.11
2017-12-06T08:02:57.254Z,79.21
2017-12-06T08:03:57.249Z,78.73
2017-12-06T08:04:57.263Z,79.21
2017-12-06T08:05:57.024Z,78.92
2017-12-06T08:06:57.292Z,78.92
2017-12-06T08:07:57.120Z,78.26
2017-12-06T08:08:57.064Z,77.92
2017-12-06T08:09:57.080Z,78.35
2017-12-06T08:10:57.344Z,79.02
2017-12-06T08:11:57.359Z,78.64
2017-12-06T08:12:57.119Z,78.83
2017-12-06T08:13:57.390Z,78.73
2017-12-06T08:14:57.397Z,78.83
2017-12-06T08:15:57.411Z,78.73
2017-12-06T08:16:57.497Z,79.11
2017-12-06T08:17:57.440Z,79.02
2017-12-06T08:18:57.459Z,79.02
2017-12-06T08:19:57.465Z,79.11
2017-12-06T08:20:57.479Z,79.39
2017-12-06T08:21:57.514Z,79.39
2017-12-06T08:22:57.304Z,79.39
2017-12-06T08:23:57.267Z,79.49
2017-12-06T08:24:57.531Z,78.87
2017-12-06T08:25:57.550Z,78.49
2017-12-06T08:26:57.560Z,79.02
2017-12-06T08:27:57.574Z,79.21
2017-12-06T08:28:57.587Z,79.02
2017-12-06T08:29:57.603Z,79.21
2017-12-06T08:30:57.620Z,78.83
2017-12-06T08:31:57.629Z,78.73
2017-12-06T08:32:57.390Z,78.92
2017-12-06T08:33:57.654Z,78.35
2017-12-06T08:34:57.666Z,78.58
2017-12-06T08:35:57.683Z,78.3
2017-12-06T08:36:57.448Z,78.92
2017-12-06T08:37:57.758Z,78.92
2017-12-06T08:38:57.741Z,78.83
2017-12-06T08:39:57.739Z,78.83
2017-12-06T08:40:57.495Z,78.54
2017-12-06T08:41:57.766Z,78.54
2017-12-06T08:42:57.783Z,78.83
2017-12-06T08:43:57.791Z,78.49
2017-12-06T08:44:57.804Z,78.2
2017-12-06T08:45:57.818Z,78.83
2017-12-06T08:46:57.832Z,78.3
2017-12-06T08:47:57.592Z,78.83
2017-12-06T08:48:57.606Z,78.64
2017-12-06T08:49:57.908Z,79.02
2017-12-06T08:50:57.885Z,79.11
2017-12-06T08:51:57.897Z,78.2
2017-12-06T08:52:57.961Z,78.49
2017-12-06T08:53:57.928Z,78.2
2017-12-06T08:54:57.687Z,78.58
2017-12-06T08:55:57.966Z,78.3
2017-12-06T08:56:57.965Z,77.16
2017-12-06T08:57:57.736Z,77.16
2017-12-06T08:58:57.993Z,77.16
2017-12-06T08:59:58.009Z,76.97
2017-12-06T09:00:57.772Z,77.54
2017-12-06T09:01:58.036Z,76.78
2017-12-06T09:02:58.049Z,76.31
2017-12-06T09:03:58.063Z,76.78
2017-12-06T09:04:57.835Z,76.68
2017-12-06T09:05:58.096Z,76.4
2017-12-06T09:06:57.850Z,76.31
2017-12-06T09:07:58.295Z,76.31
2017-12-06T09:08:58.132Z,76.31
2017-12-06T09:09:58.146Z,76.21
2017-12-06T09:10:57.906Z,76.4
2017-12-06T09:11:58.175Z,76.68
2017-12-06T09:12:57.936Z,76.97
2017-12-06T09:13:58.199Z,76.78
2017-12-06T09:14:58.225Z,76.59
2017-12-06T09:15:58.236Z,77.06
2017-12-06T09:16:57.991Z,76.78
2017-12-06T09:17:58.259Z,76.5
2017-12-06T09:18:58.271Z,76.5
2017-12-06T09:19:58.287Z,76.31
2017-12-06T09:20:58.300Z,76.68
2017-12-06T09:21:58.063Z,76.87
2017-12-06T09:22:58.378Z,76.4
2017-12-06T09:23:58.342Z,76.87
2017-12-06T09:24:58.372Z,76.59
2017-12-06T09:25:58.369Z,75.84
2017-12-06T09:26:58.385Z,76.21
2017-12-06T09:27:58.398Z,76.31
2017-12-06T09:28:58.412Z,76.21
2017-12-06T09:29:58.426Z,76.31
2017-12-06T09:30:58.186Z,76.21
2017-12-06T09:31:58.200Z,76.4
2017-12-06T09:32:58.468Z,76.21
2017-12-06T09:33:58.483Z,76.59
2017-12-06T09:34:58.495Z,77.16
2017-12-06T09:35:58.256Z,76.5
2017-12-06T09:36:58.270Z,77.06
2017-12-06T09:37:58.539Z,77.16
2017-12-06T09:38:58.550Z,77.54
2017-12-06T09:39:58.570Z,77.25
2017-12-06T09:40:58.579Z,77.35
2017-12-06T09:41:58.593Z,77.03
2017-12-06T09:42:58.356Z,77.16
2017-12-06T09:43:58.645Z,77.16
2017-12-06T09:44:58.637Z,76.87
2017-12-06T09:45:58.649Z,76.87
2017-12-06T09:46:58.663Z,76.31
2017-12-06T09:47:58.678Z,76.31
2017-12-06T09:48:58.695Z,76.5
2017-12-06T09:49:58.704Z,76.21
2017-12-06T09:50:58.727Z,76.21
2017-12-06T09:51:58.735Z,76.4
2017-12-06T09:52:58.494Z,76.12
2017-12-06T09:53:58.508Z,76.4
2017-12-06T09:54:58.521Z,76.21
2017-12-06T09:55:58.533Z,76.12
2017-12-06T09:56:58.546Z,76.78
2017-12-06T09:57:58.810Z,76.78
2017-12-06T09:58:58.578Z,76.03
2017-12-06T09:59:58.847Z,75.74
2017-12-06T10:00:58.890Z,75.64
2017-12-06T10:01:58.870Z,75.36
2017-12-06T10:02:58.643Z,75.07
2017-12-06T10:03:58.897Z,75.36
2017-12-06T10:04:58.916Z,75.74
2017-12-06T10:05:58.927Z,76.03
2017-12-06T10:06:58.937Z,76.31
2017-12-06T10:07:58.956Z,75.84
2017-12-06T10:08:58.970Z,75.74
2017-12-06T10:09:58.986Z,75.64
2017-12-06T10:10:58.994Z,75.55
2017-12-06T10:11:59.015Z,75.17
2017-12-06T10:12:59.021Z,74.79
2017-12-06T10:13:59.116Z,74.6
2017-12-06T10:14:59.052Z,74.03
2017-12-06T10:15:59.063Z,74.32
2017-12-06T10:16:58.823Z,74.13
2017-12-06T10:17:58.841Z,74.6
2017-12-06T10:18:58.855Z,74.41
2017-12-06T10:19:58.865Z,74.98
2017-12-06T10:20:58.883Z,74.88
2017-12-06T10:21:59.218Z,75.45
2017-12-06T10:22:59.160Z,75.26
2017-12-06T10:23:59.175Z,75.07
2017-12-06T10:24:59.191Z,75.36
2017-12-06T10:25:58.952Z,74.88
2017-12-06T10:26:59.220Z,74.88
2017-12-06T10:27:58.977Z,74.88
2017-12-06T10:28:59.243Z,75.07
2017-12-06T10:29:59.260Z,74.41
2017-12-06T10:30:59.020Z,74.22
2017-12-06T10:31:59.035Z,73.56
2017-12-06T10:32:59.300Z,73.75
2017-12-06T10:33:59.315Z,73.56
2017-12-06T10:34:59.076Z,73.75
2017-12-06T10:35:59.341Z,74.13
2017-12-06T10:36:59.354Z,74.32
2017-12-06T10:37:59.368Z,74.22
2017-12-06T10:38:59.131Z,74.13
2017-12-06T10:39:59.397Z,74.98
2017-12-06T10:40:59.155Z,75.07
2017-12-06T10:41:59.422Z,75.17
2017-12-06T10:42:59.439Z,76.12
2017-12-06T10:43:59.452Z,76.84
2017-12-06T10:44:59.462Z,76.93
2017-12-06T10:45:59.225Z,76.65
2017-12-06T10:46:59.490Z,76.87
2017-12-06T10:47:59.508Z,76.65
2017-12-06T10:48:59.519Z,78.16
2017-12-06T10:49:59.280Z,77.59
2017-12-06T10:50:59.547Z,77.59
2017-12-06T10:51:59.563Z,77.03
2017-12-06T10:52:59.320Z,76.97
2017-12-06T10:53:59.588Z,76.4
2017-12-06T10:54:59.361Z,75.55
2017-12-06T10:55:59.664Z,75.36
2017-12-06T10:56:59.630Z,75.17
2017-12-06T10:57:59.731Z,75.17
2017-12-06T10:58:59.658Z,75.36
2017-12-06T10:59:59.416Z,75.26
2017-12-06T11:00:59.685Z,75.64
2017-12-06T11:01:59.443Z,75.36
2017-12-06T11:02:59.712Z,74.69
2017-12-06T11:03:59.725Z,75.17
2017-12-06T11:04:59.738Z,74.51
2017-12-06T11:05:59.803Z,74.41
2017-12-06T11:06:59.767Z,73.97
2017-12-06T11:07:59.797Z,73.65
2017-12-06T11:08:59.541Z,74.13
2017-12-06T11:09:59.806Z,74.41
2017-12-06T11:10:59.873Z,74.13
2017-12-06T11:11:59.582Z,74.03
2017-12-06T11:12:59.851Z,74.32
2017-12-06T11:13:59.608Z,74.03
2017-12-06T11:14:59.886Z,74.22
2017-12-06T11:15:59.661Z,74.13
2017-12-06T11:16:59.906Z,73.5
2017-12-06T11:17:59.921Z,72.84
2017-12-06T11:18:59.934Z,72.45
2017-12-06T11:19:59.945Z,72.64
2017-12-06T11:20:59.982Z,72.36
2017-12-06T11:21:59.979Z,72.84
2017-12-06T11:22:59.992Z,73.31
2017-12-06T11:24:00.007Z,74.22
2017-12-06T11:25:00.032Z,74.51
2017-12-06T11:25:59.828Z,74.6
2017-12-06T11:27:00.047Z,74.79
2017-12-06T11:28:00.061Z,74.51
2017-12-06T11:29:00.072Z,74.79
2017-12-06T11:30:00.088Z,75.36
2017-12-06T11:31:00.103Z,75.64
2017-12-06T11:31:59.862Z,75.45
2017-12-06T11:32:59.875Z,75.84
2017-12-06T11:34:00.144Z,76.12
2017-12-06T11:35:00.160Z,76.78
2017-12-06T11:36:00.019Z,76.97
2017-12-06T11:37:00.189Z,76.12
2017-12-06T11:38:00.198Z,76.03
2017-12-06T11:39:00.212Z,76.12
2017-12-06T11:40:00.233Z,75.36
2017-12-06T11:41:00.293Z,75.36
2017-12-06T11:42:00.255Z,75.45
2017-12-06T11:43:00.268Z,75.07
2017-12-06T11:44:00.033Z,74.98
2017-12-06T11:45:00.295Z,74.51
2017-12-06T11:46:00.107Z,74.69
2017-12-06T11:47:00.324Z,74.41
2017-12-06T11:48:00.084Z,74.26
2017-12-06T11:49:00.357Z,73.88
2017-12-06T11:50:00.365Z,73.69
2017-12-06T11:51:00.379Z,73.97
2017-12-06T11:52:00.448Z,73.88
2017-12-06T11:53:00.156Z,73.84
2017-12-06T11:54:00.168Z,73.6
2017-12-06T11:55:00.435Z,74.54
2017-12-06T11:56:00.499Z,75.26
2017-12-06T11:57:00.463Z,76.4
2017-12-06T11:58:00.224Z,76.31
2017-12-06T11:59:00.497Z,76.03
2017-12-06T12:00:00.508Z,76.21
2017-12-06T12:01:00.522Z,76.97
2017-12-06T12:02:00.533Z,76.4
2017-12-06T12:03:00.550Z,76.97
2017-12-06T12:04:00.563Z,76.97
2017-12-06T12:05:00.323Z,76.78
2017-12-06T12:06:00.691Z,76.87
2017-12-06T12:07:00.601Z,76.68
2017-12-06T12:08:00.618Z,76.59
2017-12-06T12:09:00.634Z,76.31
2017-12-06T12:10:00.642Z,76.68
2017-12-06T12:11:00.456Z,77.16
2017-12-06T12:12:00.672Z,76.78
2017-12-06T12:13:00.452Z,76.87
2017-12-06T12:14:00.698Z,76.4
2017-12-06T12:15:00.717Z,76.31
2017-12-06T12:16:00.729Z,76.97
2017-12-06T12:17:00.488Z,76.87
2017-12-06T12:18:00.757Z,76.59
2017-12-06T12:19:00.770Z,76.68
2017-12-06T12:20:00.531Z,76.87
2017-12-06T12:21:00.861Z,76.4
2017-12-06T12:22:00.558Z,75.64
2017-12-06T12:23:00.825Z,75.45
2017-12-06T12:24:00.586Z,75.84
2017-12-06T12:25:00.856Z,75.64
2017-12-06T12:26:00.916Z,75.74
2017-12-06T12:27:00.881Z,76.4
2017-12-06T12:28:00.895Z,76.31
2017-12-06T12:29:00.909Z,76.21
2017-12-06T12:30:00.937Z,75.64
2017-12-06T12:31:00.682Z,75.36
2017-12-06T12:32:00.695Z,74.64
2017-12-06T12:33:00.965Z,74.92
2017-12-06T12:34:00.978Z,74.88
2017-12-06T12:35:00.990Z,75.17
2017-12-06T12:36:01.004Z,76.12
2017-12-06T12:37:01.021Z,76.5
2017-12-06T12:38:01.034Z,76.87
2017-12-06T12:39:01.047Z,76.4
2017-12-06T12:40:01.062Z,76.68
2017-12-06T12:41:01.127Z,76.78
2017-12-06T12:42:00.838Z,77.16
2017-12-06T12:43:00.851Z,76.68
2017-12-06T12:44:01.118Z,77.45
2017-12-06T12:45:01.133Z,76.68
2017-12-06T12:46:00.892Z,76.68
2017-12-06T12:47:01.163Z,77.06
2017-12-06T12:48:01.177Z,77.35
2017-12-06T12:49:01.189Z,77.06
2017-12-06T12:50:01.207Z,77.06
2017-12-06T12:51:00.964Z,77.35
2017-12-06T12:52:01.229Z,77.45
2017-12-06T12:53:00.990Z,77.73
2017-12-06T12:54:01.257Z,76.68
2017-12-06T12:55:01.272Z,76.97
2017-12-06T12:56:01.338Z,76.59